createdAt,value
2023-01-06T00:00:28.707Z,7.04
2023-01-06T00:03:17.803Z,6.98
2023-01-06T00:06:04.505Z,6.72
2023-01-06T00:08:53.565Z,6.72
2023-01-06T00:11:42.575Z,6.71
2023-01-06T00:14:31.523Z,6.96
2023-01-06T00:17:20.658Z,7.14
2023-01-06T00:20:03.015Z,7.18
2023-01-06T00:22:53.666Z,7.04
2023-01-06T00:25:41.852Z,7.26
2023-01-06T00:28:24.527Z,7.21
2023-01-06T00:31:19.333Z,6.97
2023-01-06T00:34:04.527Z,7.26
2023-01-06T00:37:02.441Z,7.19
2023-01-06T00:39:51.604Z,7.22
2023-01-06T00:42:33.934Z,7.42
2023-01-06T00:45:22.551Z,7.40
2023-01-06T00:48:04.852Z,7.13
2023-01-06T00:50:53.520Z,7.14
2023-01-06T00:53:35.880Z,7.05
2023-01-06T00:56:24.927Z,7.21
2023-01-06T00:59:06.804Z,7.32
2023-01-06T01:01:56.669Z,7.33
2023-01-06T01:04:38.870Z,7.44
2023-01-06T01:07:27.521Z,7.66
2023-01-06T01:10:09.825Z,7.50
2023-01-06T01:13:01.577Z,7.35
2023-01-06T01:15:43.828Z,7.22
2023-01-06T01:18:33.525Z,7.49
2023-01-06T01:21:15.856Z,7.23
2023-01-06T01:24:04.495Z,7.13
2023-01-06T01:26:47.844Z,7.12
2023-01-06T01:29:36.548Z,7.30
2023-01-06T01:32:19.199Z,7.15
2023-01-06T01:35:08.594Z,7.19
2023-01-06T01:37:50.844Z,7.38
2023-01-06T01:40:39.569Z,7.53
2023-01-06T01:43:22.840Z,7.45
2023-01-06T01:46:11.569Z,7.38
2023-01-06T01:49:00.518Z,7.53
2023-01-06T01:51:47.063Z,7.60
2023-01-06T01:54:42.593Z,7.59
2023-01-06T01:57:33.974Z,7.63
2023-01-06T02:00:23.357Z,7.44
2023-01-06T02:03:13.887Z,7.56
2023-01-06T02:06:03.476Z,7.66
2023-01-06T02:09:07.822Z,7.77
2023-01-06T02:11:51.417Z,7.65
2023-01-06T02:14:40.867Z,7.44
2023-01-06T02:17:43.560Z,7.70
2023-01-06T02:20:43.874Z,7.43
2023-01-06T02:23:31.528Z,7.38
2023-01-06T02:26:30.350Z,7.36
2023-01-06T02:29:44.824Z,7.53
2023-01-06T02:32:29.571Z,7.40
2023-01-06T02:35:43.544Z,7.63
2023-01-06T02:38:31.779Z,7.40
2023-01-06T02:41:26.458Z,7.58
2023-01-06T02:44:23.888Z,7.56
2023-01-06T02:47:25.569Z,7.62
2023-01-06T02:50:23.803Z,7.45
2023-01-06T02:53:19.518Z,7.61
2023-01-06T02:56:04.865Z,7.64
2023-01-06T02:59:19.513Z,7.51
2023-01-06T03:02:04.003Z,7.52
2023-01-06T03:04:58.443Z,7.62
2023-01-06T03:07:41.911Z,7.51
2023-01-06T03:10:33.344Z,7.45
2023-01-06T03:13:40.799Z,7.43
2023-01-06T03:16:29.414Z,7.61
2023-01-06T03:19:11.764Z,7.59
2023-01-06T03:22:03.525Z,7.43
2023-01-06T03:24:47.282Z,7.56
2023-01-06T03:27:38.453Z,7.71
2023-01-06T03:30:21.720Z,7.63
2023-01-06T03:33:19.500Z,7.60
2023-01-06T03:36:32.527Z,7.70
2023-01-06T03:39:30.770Z,7.62
2023-01-06T03:42:51.439Z,7.60
2023-01-06T03:46:16.473Z,7.72
2023-01-06T03:49:10.447Z,7.82
2023-01-06T03:52:16.515Z,7.22
2023-01-06T03:55:16.821Z,7.25
2023-01-06T03:58:08.364Z,7.13
2023-01-06T04:00:57.544Z,7.30
2023-01-06T04:03:40.843Z,7.22
2023-01-06T04:06:29.444Z,7.37
2023-01-06T04:09:19.780Z,7.03
2023-01-06T04:12:20.575Z,7.22
2023-01-06T04:15:09.405Z,7.23
2023-01-06T04:17:55.489Z,7.28
2023-01-06T04:20:47.440Z,7.19
2023-01-06T04:23:35.804Z,7.30
2023-01-06T04:26:24.457Z,7.39
2023-01-06T04:29:07.817Z,7.29
2023-01-06T04:31:57.480Z,7.37
2023-01-06T04:34:39.834Z,7.22
2023-01-06T04:37:37.414Z,7.33
2023-01-06T04:40:26.386Z,7.59
2023-01-06T04:43:08.888Z,7.18
2023-01-06T04:45:57.583Z,7.08
2023-01-06T04:48:39.860Z,7.09
2023-01-06T04:51:28.488Z,7.44
2023-01-06T04:54:10.711Z,7.53
2023-01-06T04:56:59.477Z,7.70
2023-01-06T04:59:41.806Z,7.48
2023-01-06T05:02:30.585Z,7.37
2023-01-06T05:05:12.776Z,7.56
2023-01-06T05:08:04.715Z,7.39
2023-01-06T05:10:53.398Z,7.36
2023-01-06T05:13:43.749Z,7.29
2023-01-06T05:16:37.573Z,7.38
2023-01-06T05:19:19.663Z,7.49
2023-01-06T05:22:08.512Z,7.54
2023-01-06T05:24:57.411Z,7.71
2023-01-06T05:27:39.778Z,7.38
2023-01-06T05:30:28.520Z,7.39
2023-01-06T05:33:10.859Z,7.64
2023-01-06T05:36:09.478Z,7.64
2023-01-06T05:39:09.367Z,7.41
2023-01-06T05:41:58.406Z,7.50
2023-01-06T05:44:40.928Z,7.83
2023-01-06T05:47:29.519Z,8.07
2023-01-06T05:50:12.749Z,7.75
2023-01-06T05:53:01.491Z,7.80
2023-01-06T05:55:50.433Z,8.13
2023-01-06T05:58:41.598Z,8.35
2023-01-06T06:01:29.805Z,8.17
2023-01-06T06:04:21.377Z,8.30
2023-01-06T06:07:03.879Z,7.98
2023-01-06T06:09:52.355Z,7.83
2023-01-06T06:12:34.893Z,8.11
2023-01-06T06:15:23.524Z,8.46
2023-01-06T06:18:05.904Z,8.41
2023-01-06T06:20:54.541Z,8.22
2023-01-06T06:23:37.796Z,8.48
2023-01-06T06:26:26.561Z,8.62
2023-01-06T06:29:08.816Z,8.94
2023-01-06T06:31:57.509Z,8.49
2023-01-06T06:34:39.835Z,8.86
2023-01-06T06:37:28.502Z,9.17
2023-01-06T06:40:10.689Z,8.96
2023-01-06T06:43:00.536Z,9.19
2023-01-06T06:45:42.733Z,8.88
2023-01-06T06:48:31.563Z,8.88
2023-01-06T06:51:18.002Z,8.90
2023-01-06T06:54:06.455Z,9.05
2023-01-06T06:56:48.692Z,9.37
2023-01-06T06:59:37.560Z,9.46
2023-01-06T07:02:19.962Z,9.56
2023-01-06T07:05:08.510Z,9.29
2023-01-06T07:07:51.771Z,9.43
2023-01-06T07:10:41.601Z,9.54
2023-01-06T07:13:23.791Z,9.77
2023-01-06T07:16:13.663Z,9.88
2023-01-06T07:18:55.684Z,9.96
2023-01-06T07:21:46.459Z,9.98
2023-01-06T07:24:28.647Z,10.01
2023-01-06T07:27:17.371Z,9.66
2023-01-06T07:30:06.412Z,9.73
2023-01-06T07:32:48.727Z,9.82
2023-01-06T07:35:37.458Z,9.93
2023-01-06T07:38:32.341Z,10.19
2023-01-06T07:41:21.488Z,10.32
2023-01-06T07:44:17.185Z,10.39
2023-01-06T07:46:59.663Z,10.54
2023-01-06T07:49:48.450Z,10.63
2023-01-06T07:52:36.745Z,10.49
2023-01-06T07:55:19.498Z,10.72
2023-01-06T07:58:13.351Z,10.46
2023-01-06T08:01:02.513Z,10.70
2023-01-06T08:03:44.649Z,10.77
2023-01-06T08:06:33.393Z,10.90
2023-01-06T08:09:21.739Z,10.77
2023-01-06T08:12:04.443Z,10.95
2023-01-06T08:14:52.788Z,10.75
2023-01-06T08:17:34.767Z,11.15
2023-01-06T08:20:22.837Z,11.01
2023-01-06T08:23:06.542Z,11.41
2023-01-06T08:25:54.753Z,11.24
2023-01-06T08:28:37.425Z,11.52
2023-01-06T08:31:28.374Z,11.39
2023-01-06T08:34:12.579Z,11.37
2023-01-06T08:37:01.491Z,11.57
2023-01-06T08:39:57.275Z,11.82
2023-01-06T08:42:46.433Z,11.64
2023-01-06T08:45:28.848Z,11.19
2023-01-06T08:48:17.307Z,11.40
2023-01-06T08:51:09.455Z,11.54
2023-01-06T08:53:58.786Z,11.52
2023-01-06T08:56:42.415Z,11.68
2023-01-06T08:59:30.772Z,11.61
2023-01-06T09:02:12.475Z,11.77
2023-01-06T09:05:01.608Z,11.48
2023-01-06T09:07:50.433Z,11.21
2023-01-06T09:10:32.624Z,11.16
2023-01-06T09:13:21.343Z,11.56
2023-01-06T09:16:13.723Z,11.93
2023-01-06T09:18:57.439Z,11.94
2023-01-06T09:21:47.167Z,11.70
2023-01-06T09:24:29.333Z,11.51
2023-01-06T09:27:17.722Z,11.55
2023-01-06T09:30:00.476Z,11.40
2023-01-06T09:32:42.653Z,11.30
2023-01-06T09:35:31.526Z,11.22
2023-01-06T09:38:27.293Z,11.12
2023-01-06T09:41:45.416Z,11.40
2023-01-06T09:44:40.781Z,11.53
2023-01-06T09:47:37.382Z,11.81
2023-01-06T09:50:52.411Z,11.96
2023-01-06T09:53:47.255Z,11.69
2023-01-06T09:56:39.364Z,11.32
2023-01-06T09:59:35.746Z,11.43
2023-01-06T10:02:35.484Z,11.20
2023-01-06T10:05:27.549Z,11.19
2023-01-06T10:08:22.417Z,11.51
2023-01-06T10:11:17.086Z,11.45
2023-01-06T10:14:09.454Z,11.43
2023-01-06T10:17:03.006Z,11.31
2023-01-06T10:20:09.459Z,11.45
2023-01-06T10:23:04.723Z,11.34
2023-01-06T10:25:54.379Z,11.35
2023-01-06T10:28:46.389Z,11.32
2023-01-06T10:31:36.841Z,11.19
2023-01-06T10:34:34.354Z,11.42
2023-01-06T10:37:44.429Z,11.15
2023-01-06T10:40:44.344Z,11.05
2023-01-06T10:43:32.868Z,10.95
2023-01-06T10:46:15.303Z,10.87
2023-01-06T10:49:03.674Z,11.29
2023-01-06T10:51:53.428Z,10.93
2023-01-06T10:54:43.591Z,10.81
2023-01-06T10:57:33.325Z,11.19
2023-01-06T11:00:26.377Z,10.96
2023-01-06T11:03:32.373Z,11.02
2023-01-06T11:06:24.407Z,10.99
2023-01-06T11:09:06.704Z,10.74
2023-01-06T11:12:00.359Z,10.73
2023-01-06T11:14:43.732Z,10.56
2023-01-06T11:17:33.319Z,10.59
2023-01-06T11:20:24.419Z,10.55
2023-01-06T11:23:30.817Z,10.47
2023-01-06T11:26:26.299Z,10.47
2023-01-06T11:29:53.293Z,10.43
2023-01-06T11:32:36.471Z,10.35
2023-01-06T11:35:35.429Z,10.38
2023-01-06T11:38:26.407Z,10.50
2023-01-06T11:41:17.686Z,10.52
2023-01-06T11:44:29.428Z,10.28
2023-01-06T11:47:22.466Z,10.67
2023-01-06T11:50:05.380Z,10.79
2023-01-06T11:52:54.375Z,10.54
2023-01-06T11:55:43.314Z,10.06
2023-01-06T11:58:47.387Z,10.09
2023-01-06T12:01:34.339Z,10.20
2023-01-06T12:05:00.244Z,10.19
2023-01-06T12:07:58.260Z,10.35
2023-01-06T12:10:44.403Z,10.11
2023-01-06T12:13:28.554Z,10.15
2023-01-06T12:16:30.610Z,10.41
2023-01-06T12:19:28.734Z,10.25
2023-01-06T12:22:11.398Z,10.30
2023-01-06T12:25:03.276Z,10.35
2023-01-06T12:27:58.349Z,10.09
2023-01-06T12:30:59.024Z,10.20
2023-01-06T12:34:02.855Z,10.11
2023-01-06T12:36:50.655Z,10.23
2023-01-06T12:39:53.475Z,10.32
2023-01-06T12:42:44.787Z,10.13
2023-01-06T12:45:56.594Z,10.29
2023-01-06T12:48:45.612Z,10.23
2023-01-06T12:51:52.383Z,10.27
2023-01-06T12:54:36.786Z,10.29
2023-01-06T12:57:47.295Z,10.38
2023-01-06T13:00:45.473Z,10.28
2023-01-06T13:04:11.526Z,9.98
2023-01-06T13:07:11.820Z,10.02
2023-01-06T13:10:33.362Z,10.06
2023-01-06T13:13:31.218Z,10.02
2023-01-06T13:16:40.364Z,9.93
2023-01-06T13:19:56.336Z,9.78
2023-01-06T13:22:56.529Z,9.95
2023-01-06T13:26:19.287Z,9.60
2023-01-06T13:29:08.369Z,9.80
2023-01-06T13:32:27.730Z,9.80
2023-01-06T13:35:35.285Z,9.56
2023-01-06T13:38:39.189Z,9.28
2023-01-06T13:41:29.322Z,9.16
2023-01-06T13:44:17.782Z,9.48
2023-01-06T13:47:27.352Z,9.27
2023-01-06T13:50:09.756Z,9.23
2023-01-06T13:52:59.225Z,9.35
2023-01-06T13:55:51.372Z,9.60
2023-01-06T13:58:33.563Z,9.58
2023-01-06T14:01:36.446Z,9.41
2023-01-06T14:04:43.916Z,9.66
2023-01-06T14:07:51.409Z,9.27
2023-01-06T14:10:39.628Z,9.12
2023-01-06T14:13:27.413Z,9.36
2023-01-06T14:16:20.316Z,9.21
2023-01-06T14:19:33.273Z,9.06
2023-01-06T14:22:28.524Z,9.02
2023-01-06T14:25:16.370Z,9.23
2023-01-06T14:28:01.347Z,9.34
2023-01-06T14:30:51.369Z,9.23
2023-01-06T14:33:50.658Z,9.20
2023-01-06T14:36:34.402Z,9.24
2023-01-06T14:39:37.235Z,9.17
2023-01-06T14:42:42.282Z,9.23
2023-01-06T14:45:33.611Z,9.16
2023-01-06T14:48:26.298Z,9.13
2023-01-06T14:51:08.682Z,9.20
2023-01-06T14:54:12.232Z,9.24
2023-01-06T14:57:07.265Z,9.18
2023-01-06T15:00:37.411Z,9.20
2023-01-06T15:03:30.713Z,9.44
2023-01-06T15:06:30.285Z,9.53
2023-01-06T15:09:21.368Z,9.68
2023-01-06T15:12:10.314Z,9.61
2023-01-06T15:14:52.624Z,9.74
2023-01-06T15:17:41.307Z,9.81
2023-01-06T15:20:23.711Z,9.61
2023-01-06T15:23:13.358Z,9.36
2023-01-06T15:26:10.252Z,9.38
2023-01-06T15:29:11.352Z,9.40
2023-01-06T15:31:57.297Z,9.34
2023-01-06T15:34:50.322Z,9.41
2023-01-06T15:37:42.399Z,9.54
2023-01-06T15:40:38.400Z,9.53
2023-01-06T15:43:31.633Z,9.61
2023-01-06T15:46:21.046Z,9.53
2023-01-06T15:49:12.333Z,9.57
2023-01-06T15:52:08.882Z,9.36
2023-01-06T15:54:58.686Z,9.34
2023-01-06T15:57:53.633Z,9.43
2023-01-06T16:01:04.272Z,9.51
2023-01-06T16:03:54.615Z,9.51
2023-01-06T16:06:48.535Z,9.65
2023-01-06T16:09:36.956Z,9.35
2023-01-06T16:12:30.655Z,9.51
2023-01-06T16:15:42.848Z,9.52
2023-01-06T16:18:45.567Z,9.45
2023-01-06T16:21:33.639Z,9.65
2023-01-06T16:24:38.669Z,9.30
2023-01-06T16:27:21.317Z,9.23
2023-01-06T16:30:21.288Z,9.24
2023-01-06T16:33:06.053Z,9.13
2023-01-06T16:36:00.370Z,9.00
2023-01-06T16:38:46.956Z,9.20
2023-01-06T16:41:36.458Z,9.15
2023-01-06T16:44:19.004Z,9.19
2023-01-06T16:47:10.209Z,9.06
2023-01-06T16:49:52.927Z,9.09
2023-01-06T16:52:42.503Z,9.16
2023-01-06T16:55:27.775Z,9.24
2023-01-06T16:58:37.290Z,9.09
2023-01-06T17:01:29.519Z,9.18
2023-01-06T17:04:20.697Z,9.13
2023-01-06T17:07:09.467Z,9.13
2023-01-06T17:09:51.906Z,9.22
2023-01-06T17:12:58.570Z,9.03
2023-01-06T17:15:47.747Z,9.06
2023-01-06T17:18:38.349Z,8.94
2023-01-06T17:21:43.207Z,8.93
2023-01-06T17:24:31.381Z,8.98
2023-01-06T17:27:31.403Z,9.13
2023-01-06T17:30:32.363Z,9.29
2023-01-06T17:33:22.881Z,9.13
2023-01-06T17:36:07.274Z,9.14
2023-01-06T17:39:04.535Z,9.04
2023-01-06T17:41:54.248Z,9.27
2023-01-06T17:44:49.918Z,9.32
2023-01-06T17:47:51.473Z,9.13
2023-01-06T17:50:41.700Z,9.27
2023-01-06T17:54:02.630Z,9.39
2023-01-06T17:56:51.685Z,9.42
2023-01-06T17:59:40.506Z,9.45
2023-01-06T18:02:38.563Z,9.51
2023-01-06T18:05:33.705Z,9.09
2023-01-06T18:08:15.880Z,9.06
2023-01-06T18:11:05.377Z,9.24
2023-01-06T18:13:58.530Z,9.33
2023-01-06T18:16:49.793Z,8.94
2023-01-06T18:19:43.955Z,9.17
2023-01-06T18:22:31.876Z,9.28
2023-01-06T18:25:32.751Z,9.35
2023-01-06T18:28:27.002Z,9.20
2023-01-06T18:31:24.849Z,9.33
2023-01-06T18:34:31.585Z,8.99
2023-01-06T18:37:22.194Z,8.95
2023-01-06T18:40:16.715Z,8.83
2023-01-06T18:43:01.176Z,8.85
2023-01-06T18:45:50.385Z,8.94
2023-01-06T18:48:39.453Z,8.81
2023-01-06T18:51:31.721Z,8.72
2023-01-06T18:54:26.248Z,8.75
2023-01-06T18:57:32.391Z,8.72
2023-01-06T19:00:38.968Z,8.95
2023-01-06T19:03:44.239Z,8.93
2023-01-06T19:06:36.610Z,9.14
2023-01-06T19:09:31.731Z,8.91
2023-01-06T19:12:19.274Z,8.84
2023-01-06T19:15:27.639Z,8.73
2023-01-06T19:18:12.272Z,8.90
2023-01-06T19:21:01.672Z,8.67
2023-01-06T19:23:43.724Z,8.85
2023-01-06T19:26:53.825Z,8.87
2023-01-06T19:29:41.170Z,8.68
2023-01-06T19:32:32.453Z,8.57
2023-01-06T19:35:28.006Z,8.59
2023-01-06T19:38:43.554Z,8.67
2023-01-06T19:41:38.806Z,8.59
2023-01-06T19:44:22.600Z,8.66
2023-01-06T19:47:18.605Z,8.71
2023-01-06T19:50:11.415Z,8.77
2023-01-06T19:52:59.119Z,8.65
2023-01-06T19:55:49.259Z,8.57
2023-01-06T19:58:36.553Z,8.54
2023-01-06T20:01:28.487Z,8.48
2023-01-06T20:04:29.707Z,8.46
2023-01-06T20:07:18.284Z,8.47
2023-01-06T20:10:06.701Z,8.66
2023-01-06T20:12:49.305Z,8.71
2023-01-06T20:15:37.763Z,8.48
2023-01-06T20:18:20.369Z,8.52
2023-01-06T20:21:09.549Z,8.46
2023-01-06T20:23:52.222Z,8.41
2023-01-06T20:26:35.627Z,8.64
2023-01-06T20:29:24.306Z,8.78
2023-01-06T20:32:13.562Z,8.50
2023-01-06T20:34:55.294Z,8.81
2023-01-06T20:37:37.599Z,8.91
2023-01-06T20:40:27.243Z,8.93
2023-01-06T20:43:09.581Z,8.59
2023-01-06T20:45:58.309Z,8.39
2023-01-06T20:48:47.263Z,8.28
2023-01-06T20:51:29.625Z,8.73
2023-01-06T20:54:18.168Z,8.56
2023-01-06T20:57:00.582Z,8.40
2023-01-06T20:59:49.311Z,8.36
2023-01-06T21:02:31.662Z,8.16
2023-01-06T21:05:20.196Z,8.03
2023-01-06T21:08:09.193Z,8.01
2023-01-06T21:10:57.505Z,8.54
2023-01-06T21:13:39.266Z,8.27
2023-01-06T21:16:27.657Z,8.19
2023-01-06T21:19:10.298Z,8.09
2023-01-06T21:21:59.201Z,7.99
2023-01-06T21:24:41.589Z,8.46
2023-01-06T21:27:30.289Z,8.58
2023-01-06T21:30:13.560Z,8.24
2023-01-06T21:33:02.358Z,8.27
2023-01-06T21:35:44.585Z,8.18
2023-01-06T21:38:33.286Z,8.41
2023-01-06T21:41:39.737Z,8.22
2023-01-06T21:44:22.284Z,8.21
2023-01-06T21:47:04.995Z,8.55
2023-01-06T21:49:54.311Z,8.54
2023-01-06T21:52:44.479Z,8.35
2023-01-06T21:55:27.335Z,8.64
2023-01-06T21:58:16.227Z,8.82
2023-01-06T22:01:05.402Z,8.64
2023-01-06T22:03:47.480Z,8.92
2023-01-06T22:06:37.295Z,8.89
2023-01-06T22:09:29.549Z,8.98
2023-01-06T22:12:14.137Z,8.89
2023-01-06T22:15:03.579Z,8.83
2023-01-06T22:17:46.316Z,8.94
2023-01-06T22:20:32.217Z,8.84
2023-01-06T22:23:26.204Z,8.81
2023-01-06T22:26:08.628Z,8.83
2023-01-06T22:28:57.370Z,8.75
2023-01-06T22:31:41.696Z,8.72
2023-01-06T22:34:30.199Z,8.67
2023-01-06T22:37:19.187Z,8.70
2023-01-06T22:40:14.124Z,8.69
2023-01-06T22:43:04.246Z,8.66
2023-01-06T22:45:46.510Z,8.65
2023-01-06T22:48:35.365Z,8.72
2023-01-06T22:51:24.361Z,8.63
2023-01-06T22:54:06.618Z,8.78
2023-01-06T22:56:55.302Z,8.72
2023-01-06T22:59:37.483Z,8.65
2023-01-06T23:02:26.471Z,8.57
2023-01-06T23:05:15.581Z,8.58
2023-01-06T23:07:57.271Z,8.53
2023-01-06T23:10:46.231Z,8.48
2023-01-06T23:13:28.565Z,8.63
2023-01-06T23:16:19.357Z,8.55
2023-01-06T23:19:08.244Z,8.59
2023-01-06T23:21:56.541Z,8.60
2023-01-06T23:24:38.130Z,8.46
2023-01-06T23:27:26.613Z,8.57
2023-01-06T23:30:09.368Z,8.60
2023-01-06T23:32:57.577Z,8.59
2023-01-06T23:35:40.267Z,8.63
2023-01-06T23:38:28.555Z,8.64
2023-01-06T23:41:28.292Z,8.54
2023-01-06T23:44:22.526Z,8.59
2023-01-06T23:47:04.161Z,8.45
2023-01-06T23:49:52.621Z,8.51
2023-01-06T23:52:35.179Z,8.54
2023-01-06T23:55:24.541Z,8.46
2023-01-06T23:58:06.193Z,8.46
